Fort Lauderdale, Florida
Current Conditions -  °F | °C
As of 8:53 PM on Sunday 25 Jan 2015 (Local Time) from KFLL Reporting Station
Scattered Clouds Scattered Clouds  
Wind Chill: 59°   Ceiling: Unl
Heat Index: 59°   Visibility: 10mi
Dew Point: 44°   Wind: 0mph
Humidity: 58%   Direction: NA
Pressure: 30.04"   Gusts: NA
Location:  26.12°N, 80.15°W
Report Text: KFLL 260153Z 00000KT 10SM SCT250 15/07 A3004 RMK AO2 PRESRR SLP171 T01500067
Loading
Personal Weather Stations






























Interactive Weather Map New forecast layout! Learn more

10-Day Weather Forecast

Advertisements
Track Severe Weather on mobile